Time;durP1;ratioP1;P1;durP2;ratioP2;P2;SDS_P1;SDS_P2;PMS_P1;PMS_P2;Temp;Humidity;BMP_temperature;BMP_pressure;BME280_temperature;BME280_humidity;BME280_pressure;Samples;Min_cycle;Max_cycle;Signal;HPM_P1;HPM_P2
2021/05/28 00:01:50;;;;;;;5.85;2.05;;;;;;;19.09;40.84;102375.75;4172642;28;20033;-44
2021/05/28 00:03:50;;;;;;;4.68;2.20;;;;;;;19.12;40.75;102380.81;4171604;28;20052;-44
2021/05/28 00:05:51;;;;;;;3.58;2.30;;;;;;;19.03;40.95;102383.13;4173190;28;20395;-44
2021/05/28 00:07:51;;;;;;;8.00;2.50;;;;;;;18.95;41.13;102377.91;4156468;28;20056;-44
2021/05/28 00:09:52;;;;;;;5.25;2.15;;;;;;;19.05;40.81;102382.88;4154966;28;20044;-44
2021/05/28 00:11:52;;;;;;;3.00;2.05;;;;;;;18.97;41.05;102375.75;4175753;28;20028;-44
2021/05/28 00:13:53;;;;;;;4.20;1.77;;;;;;;19.03;40.98;102380.34;4164533;28;20695;-43
2021/05/28 00:15:53;;;;;;;2.65;1.98;;;;;;;19.00;40.95;102379.97;4168925;28;20029;-44
2021/05/28 00:17:54;;;;;;;4.57;2.30;;;;;;;18.91;40.98;102370.31;4172789;28;20499;-44
2021/05/28 00:19:54;;;;;;;3.53;2.15;;;;;;;18.93;40.88;102373.72;4172066;28;20762;-46
2021/05/28 00:21:54;;;;;;;3.42;2.00;;;;;;;18.93;40.96;102387.59;4171768;28;20044;-45
2021/05/28 00:23:55;;;;;;;2.95;1.83;;;;;;;18.92;41.07;102383.94;4173523;28;20032;-45
2021/05/28 00:25:55;;;;;;;2.97;2.00;;;;;;;18.81;41.04;102384.81;4173276;28;20033;-45
2021/05/28 00:27:56;;;;;;;4.82;2.13;;;;;;;18.77;41.12;102384.47;4175197;28;20395;-45
2021/05/28 00:29:58;;;;;;;5.03;2.15;;;;;;;18.82;41.45;102392.06;4173462;28;20044;-44
2021/05/28 00:31:58;;;;;;;2.60;1.85;;;;;;;18.74;41.34;102393.25;4170756;28;20453;-44
2021/05/28 00:33:58;;;;;;;5.55;2.03;;;;;;;18.78;41.15;102390.84;4178357;28;20059;-44
2021/05/28 00:35:59;;;;;;;6.07;1.50;;;;;;;18.75;41.40;102389.38;4175945;28;20033;-44
2021/05/28 00:37:59;;;;;;;3.67;1.90;;;;;;;18.78;41.25;102388.91;4177127;28;20029;-45
2021/05/28 00:40:00;;;;;;;3.65;1.85;;;;;;;18.79;41.08;102389.75;4175306;28;20041;-45
2021/05/28 00:42:00;;;;;;;2.17;1.67;;;;;;;18.82;40.89;102390.13;4171888;28;20024;-46
2021/05/28 00:44:02;;;;;;;4.22;2.00;;;;;;;18.75;41.30;102389.38;4176773;28;20031;-46
2021/05/28 00:46:03;;;;;;;2.75;1.90;;;;;;;18.65;41.37;102391.91;4172636;28;20037;-44
2021/05/28 00:48:04;;;;;;;3.53;1.67;;;;;;;18.72;41.14;102384.31;4173069;28;20080;-44
2021/05/28 00:50:05;;;;;;;4.55;1.92;;;;;;;18.67;41.30;102378.66;4175541;28;20356;-44
2021/05/28 00:52:06;;;;;;;2.33;1.38;;;;;;;18.67;41.20;102373.94;4171394;28;20119;-45
2021/05/28 00:54:06;;;;;;;1.88;1.50;;;;;;;18.77;41.07;102378.91;4175826;28;20068;-43
2021/05/28 00:56:06;;;;;;;2.47;1.30;;;;;;;18.66;41.07;102366.72;4175037;28;20323;-46
2021/05/28 00:58:07;;;;;;;4.50;1.70;;;;;;;18.72;40.88;102373.22;4175047;28;20039;-44
2021/05/28 01:00:08;;;;;;;2.10;1.90;;;;;;;18.52;41.55;102362.47;4167219;28;20033;-44
2021/05/28 01:02:09;;;;;;;3.10;2.17;;;;;;;18.55;41.33;102373.09;4169370;28;20076;-43
2021/05/28 01:04:09;;;;;;;2.92;1.83;;;;;;;18.57;41.11;102364.53;4171997;28;20393;-44
2021/05/28 01:06:10;;;;;;;1.88;1.42;;;;;;;18.65;41.12;102378.88;4165805;28;20091;-45
2021/05/28 01:08:11;;;;;;;2.97;1.80;;;;;;;18.55;41.40;102381.41;4172770;28;20379;-45
2021/05/28 01:10:12;;;;;;;4.07;1.52;;;;;;;18.43;41.62;102381.41;4175196;28;20157;-45
2021/05/28 01:12:13;;;;;;;2.30;1.85;;;;;;;18.46;41.60;102388.38;4171478;28;20140;-44
2021/05/28 01:14:13;;;;;;;2.97;1.75;;;;;;;18.48;41.40;102384.28;4170982;28;20056;-44
2021/05/28 01:16:14;;;;;;;1.73;1.55;;;;;;;18.56;41.00;102391.41;4174621;28;20499;-43
2021/05/28 01:18:15;;;;;;;2.15;1.50;;;;;;;18.46;41.30;102368.97;4172222;28;20033;-43
2021/05/28 01:20:15;;;;;;;1.88;1.45;;;;;;;18.50;41.25;102384.88;4175348;28;20036;-44
2021/05/28 01:22:19;;;;;;;2.70;1.75;;;;;;;18.57;40.92;102386.72;4175021;28;20044;-45
2021/05/28 01:24:19;;;;;;;2.35;1.58;;;;;;;18.52;41.29;102384.66;4171371;28;20056;-45
2021/05/28 01:26:20;;;;;;;2.10;1.92;;;;;;;18.52;41.06;102382.75;4174077;28;20392;-44
2021/05/28 01:28:21;;;;;;;4.43;1.95;;;;;;;18.39;41.27;102385.72;4171035;28;20690;-44
2021/05/28 01:30:23;;;;;;;2.35;1.90;;;;;;;18.46;41.30;102382.84;4175503;28;20373;-44
2021/05/28 01:32:24;;;;;;;2.95;2.00;;;;;;;18.41;41.45;102377.16;4171686;28;20094;-44
2021/05/28 01:34:24;;;;;;;2.03;1.80;;;;;;;18.29;41.64;102380.75;4172521;28;20068;-45
2021/05/28 01:36:25;;;;;;;3.72;1.75;;;;;;;18.42;41.39;102390.78;4177158;28;20318;-45
2021/05/28 01:38:26;;;;;;;2.10;1.52;;;;;;;18.42;41.20;102376.94;4173422;28;20041;-45
2021/05/28 01:40:26;;;;;;;1.50;1.40;;;;;;;18.43;40.98;102383.31;4124058;28;1312272;-46
2021/05/28 01:42:27;;;;;;;1.70;1.60;;;;;;;18.38;41.22;102378.47;4175807;28;20037;-48
2021/05/28 01:44:27;;;;;;;3.05;1.90;;;;;;;18.43;41.59;102377.75;4175255;28;20561;-45
2021/05/28 01:46:29;;;;;;;1.85;1.67;;;;;;;18.40;41.15;102381.00;4174977;28;20033;-47
2021/05/28 01:48:29;;;;;;;1.50;1.25;;;;;;;18.21;41.64;102383.00;4172437;28;20145;-45
2021/05/28 01:50:30;;;;;;;2.08;1.40;;;;;;;18.30;41.25;102378.81;4172319;28;20060;-46
2021/05/28 01:52:30;;;;;;;2.35;2.15;;;;;;;18.24;41.54;102388.91;4172607;28;20025;-45
2021/05/28 01:54:37;;;;;;;2.85;2.00;;;;;;;18.26;41.22;102381.22;4170064;28;20048;-45
2021/05/28 01:56:37;;;;;;;2.13;1.60;;;;;;;18.38;40.99;102383.19;4152699;28;20037;-45
2021/05/28 01:58:38;;;;;;;2.35;2.15;;;;;;;18.27;41.31;102384.81;4173821;28;20032;-46
2021/05/28 02:00:39;;;;;;;2.28;1.70;;;;;;;18.25;41.39;102393.38;4172767;28;20036;-47
2021/05/28 02:02:39;;;;;;;4.18;1.90;;;;;;;18.10;41.40;102371.63;4169736;28;20457;-45
2021/05/28 02:04:41;;;;;;;2.42;1.80;;;;;;;18.31;41.15;102398.00;4175010;28;20399;-46
2021/05/28 02:06:41;;;;;;;1.58;1.40;;;;;;;18.23;41.17;102395.56;4173409;28;20033;-48
2021/05/28 02:08:42;;;;;;;3.67;1.85;;;;;;;18.15;41.29;102391.19;4172729;28;20082;-47
2021/05/28 02:10:44;;;;;;;2.53;1.45;;;;;;;18.26;41.31;102392.31;4170879;28;20028;-47
2021/05/28 02:12:44;;;;;;;1.80;1.70;;;;;;;18.17;41.10;102393.72;4166463;28;20407;-47
2021/05/28 02:14:44;;;;;;;1.75;1.45;;;;;;;18.18;41.37;102392.63;4176071;28;20111;-45
2021/05/28 02:16:45;;;;;;;2.95;1.55;;;;;;;18.18;41.28;102389.84;4174162;28;20071;-44
2021/05/28 02:18:45;;;;;;;2.63;1.52;;;;;;;18.29;41.03;102396.50;4181716;28;20033;-46
2021/05/28 02:20:46;;;;;;;1.75;1.40;;;;;;;18.23;40.95;102397.47;4171009;28;20037;-46
2021/05/28 02:22:47;;;;;;;2.40;1.75;;;;;;;18.27;40.93;102398.69;4173331;28;20772;-45
2021/05/28 02:24:47;;;;;;;1.65;1.35;;;;;;;18.14;41.28;102400.56;4182833;28;20542;-44
2021/05/28 02:26:48;;;;;;;2.22;1.70;;;;;;;18.21;40.85;102399.63;4170790;28;20037;-45
2021/05/28 02:28:49;;;;;;;1.90;1.60;;;;;;;18.22;40.77;102393.84;4175670;28;20094;-45
2021/05/28 02:30:49;;;;;;;1.80;1.48;;;;;;;18.10;40.86;102393.81;4146713;28;20048;-45
2021/05/28 02:32:50;;;;;;;2.83;1.88;;;;;;;18.13;40.97;102407.19;4169938;28;20115;-45
2021/05/28 02:34:50;;;;;;;3.22;2.05;;;;;;;18.10;41.14;102401.28;4174221;28;20097;-43
2021/05/28 02:36:51;;;;;;;1.63;1.40;;;;;;;18.18;40.78;102401.81;4169824;28;20044;-43
2021/05/28 02:38:51;;;;;;;1.65;1.42;;;;;;;17.87;41.21;102394.56;4177767;28;20033;-43
2021/05/28 02:40:51;;;;;;;1.95;1.75;;;;;;;17.96;41.11;102398.69;4172203;28;20356;-43
2021/05/28 02:42:52;;;;;;;2.22;1.60;;;;;;;18.08;41.27;102407.06;4175075;28;20037;-43
2021/05/28 02:44:54;;;;;;;2.03;1.50;;;;;;;17.95;41.18;102405.34;4173740;28;20041;-44
2021/05/28 02:46:54;;;;;;;1.65;1.50;;;;;;;18.11;40.88;102412.13;4173847;28;20059;-43
2021/05/28 02:48:54;;;;;;;1.85;1.50;;;;;;;18.04;41.18;102408.59;4178475;28;20037;-43
2021/05/28 02:50:55;;;;;;;1.55;1.20;;;;;;;18.11;40.98;102412.13;4172250;28;20036;-42
2021/05/28 02:52:55;;;;;;;1.65;1.45;;;;;;;18.00;41.08;102418.47;4171584;28;20032;-44
2021/05/28 02:54:56;;;;;;;2.05;1.77;;;;;;;17.96;41.16;102408.94;4173059;28;20372;-43
2021/05/28 02:56:56;;;;;;;1.40;1.30;;;;;;;17.91;41.38;102417.13;4171474;28;20547;-44
2021/05/28 02:58:57;;;;;;;2.40;1.70;;;;;;;18.04;41.03;102430.78;4173548;28;20024;-44
2021/05/28 03:00:57;;;;;;;2.67;1.88;;;;;;;17.72;41.15;102377.50;4157154;28;20041;-45
2021/05/28 03:02:58;;;;;;;2.50;1.52;;;;;;;17.88;41.22;102406.50;4171802;28;20040;-44
2021/05/28 03:04:58;;;;;;;1.98;1.77;;;;;;;17.92;41.08;102421.56;4167478;28;20387;-44
2021/05/28 03:06:59;;;;;;;2.83;1.83;;;;;;;17.93;40.98;102426.88;4168336;28;20554;-43
2021/05/28 03:08:59;;;;;;;2.58;1.90;;;;;;;17.84;40.97;102427.44;4169149;28;20043;-43
2021/05/28 03:11:00;;;;;;;1.88;1.65;;;;;;;18.07;40.76;102424.75;4169573;28;20033;-44
2021/05/28 03:13:00;;;;;;;2.38;1.50;;;;;;;17.96;40.82;102423.63;4168248;28;20033;-47
2021/05/28 03:15:00;;;;;;;2.60;1.40;;;;;;;17.92;40.76;102425.19;4169148;28;20490;-44
2021/05/28 03:17:01;;;;;;;2.08;1.48;;;;;;;18.02;40.45;102429.34;4170098;28;20037;-43
2021/05/28 03:19:05;;;;;;;1.92;1.77;;;;;;;17.92;40.84;102436.28;4174873;28;20582;-43
2021/05/28 03:21:23;;;;;;;1.60;1.33;;;;;;;17.91;40.77;102429.03;4170580;28;20083;-47
2021/05/28 03:23:24;;;;;;;2.47;1.38;;;;;;;17.87;40.81;102432.50;4170189;28;20436;-44
2021/05/28 03:25:25;;;;;;;2.80;1.70;;;;;;;17.73;41.16;102429.06;4172276;28;20048;-44
2021/05/28 03:27:25;;;;;;;1.50;1.33;;;;;;;17.68;41.22;102421.44;4174400;28;20111;-44
2021/05/28 03:29:26;;;;;;;1.55;1.45;;;;;;;17.82;40.78;102435.97;4170132;28;20091;-45
2021/05/28 03:31:26;;;;;;;2.00;1.50;;;;;;;17.73;41.13;102435.44;4170491;28;20454;-44
2021/05/28 03:33:27;;;;;;;2.97;1.05;;;;;;;17.85;40.83;102429.97;4169648;28;20033;-44
2021/05/28 03:35:27;;;;;;;1.67;1.20;;;;;;;17.75;40.84;102433.31;4178842;28;20043;-44
2021/05/28 03:37:28;;;;;;;2.47;1.40;;;;;;;17.75;40.85;102436.06;4172818;28;20040;-44
2021/05/28 03:39:28;;;;;;;1.40;1.30;;;;;;;17.76;41.03;102431.38;4169455;28;20049;-44
2021/05/28 03:41:29;;;;;;;2.58;1.40;;;;;;;17.72;40.99;102431.00;4161488;28;20033;-44
2021/05/28 03:43:29;;;;;;;1.67;1.45;;;;;;;17.76;40.67;102437.75;4158430;28;20041;-44
2021/05/28 03:45:29;;;;;;;3.08;1.40;;;;;;;17.71;40.96;102429.28;4170374;28;20033;-44
2021/05/28 03:47:30;;;;;;;1.30;1.20;;;;;;;17.69;40.92;102431.47;4173971;28;20264;-44
2021/05/28 03:49:31;;;;;;;2.88;1.40;;;;;;;17.77;40.54;102425.59;4170795;28;20040;-44
2021/05/28 03:51:32;;;;;;;1.63;1.52;;;;;;;17.62;41.00;102414.06;4167285;28;20133;-44
2021/05/28 03:53:32;;;;;;;2.33;1.98;;;;;;;17.77;40.65;102427.53;4169196;28;20171;-44
2021/05/28 03:55:33;;;;;;;3.15;1.20;;;;;;;17.82;40.62;102427.66;4155250;28;20041;-45
2021/05/28 03:57:33;;;;;;;2.00;1.42;;;;;;;17.73;40.56;102435.44;4175312;28;20498;-44
2021/05/28 03:59:34;;;;;;;1.75;1.65;;;;;;;17.68;40.51;102431.69;4169958;28;20025;-45
2021/05/28 04:01:35;;;;;;;1.23;1.02;;;;;;;17.66;40.75;102433.81;4168209;28;20087;-44
2021/05/28 04:03:35;;;;;;;2.10;1.50;;;;;;;17.69;40.58;102437.00;4176684;28;20037;-43
2021/05/28 04:05:35;;;;;;;1.63;1.42;;;;;;;17.58;40.62;102415.59;4170209;28;20083;-45
2021/05/28 04:07:36;;;;;;;1.60;1.50;;;;;;;17.79;40.56;102437.28;4166691;28;20032;-44
2021/05/28 04:09:37;;;;;;;2.05;1.55;;;;;;;17.59;40.83;102443.06;4172093;28;20033;-43
2021/05/28 04:11:37;;;;;;;1.80;1.30;;;;;;;17.58;40.94;102435.84;4169851;28;20060;-42
2021/05/28 04:13:37;;;;;;;1.35;1.20;;;;;;;17.56;40.68;102431.63;4171416;28;20048;-43
2021/05/28 04:15:38;;;;;;;1.73;1.63;;;;;;;17.60;40.79;102443.94;4175860;28;20495;-43
2021/05/28 04:17:38;;;;;;;1.85;1.20;;;;;;;17.58;40.89;102443.28;4169759;28;20029;-43
2021/05/28 04:19:39;;;;;;;2.55;1.30;;;;;;;17.60;40.60;102449.47;4174639;28;20051;-43
2021/05/28 04:21:39;;;;;;;1.83;1.40;;;;;;;17.62;40.41;102441.75;4172240;28;20049;-45
2021/05/28 04:23:40;;;;;;;1.55;1.40;;;;;;;17.43;40.43;102433.44;4167711;28;20036;-45
2021/05/28 04:25:40;;;;;;;1.50;1.40;;;;;;;17.58;40.56;102449.69;4176864;28;20021;-45
2021/05/28 04:27:41;;;;;;;3.15;1.50;;;;;;;17.60;40.40;102455.84;4173987;28;20028;-46
2021/05/28 04:29:41;;;;;;;1.52;1.20;;;;;;;17.54;40.42;102450.38;4175789;28;20033;-44
2021/05/28 04:31:42;;;;;;;1.52;1.42;;;;;;;17.51;40.57;102456.38;4174106;28;20032;-45
2021/05/28 04:33:42;;;;;;;1.88;1.52;;;;;;;17.45;40.66;102450.66;4175464;28;20047;-46
2021/05/28 04:35:42;;;;;;;1.50;1.40;;;;;;;17.51;40.59;102445.31;4174834;28;20044;-46
2021/05/28 04:37:43;;;;;;;2.05;1.40;;;;;;;17.57;40.42;102453.53;4173312;28;21078;-46
2021/05/28 04:39:43;;;;;;;1.20;1.10;;;;;;;17.58;40.27;102446.06;4176985;28;20127;-45
2021/05/28 04:41:44;;;;;;;1.52;1.30;;;;;;;17.54;40.39;102451.22;4176514;28;20087;-44
2021/05/28 04:43:44;;;;;;;0.70;0.70;;;;;;;17.46;40.59;102460.66;4163707;28;20380;-44
2021/05/28 04:45:45;;;;;;;1.40;1.30;;;;;;;17.40;40.36;102439.44;4177730;28;20033;-44
2021/05/28 04:47:45;;;;;;;2.03;1.20;;;;;;;17.19;40.49;102420.50;4174655;28;20033;-45
2021/05/28 04:49:46;;;;;;;1.40;1.20;;;;;;;17.43;40.74;102466.66;4175625;28;20059;-45
2021/05/28 04:51:46;;;;;;;1.75;1.30;;;;;;;17.53;40.30;102462.53;4178966;28;20485;-43
2021/05/28 04:53:47;;;;;;;1.17;1.05;;;;;;;17.40;40.49;102469.88;4173009;28;20124;-44
2021/05/28 04:55:47;;;;;;;1.52;1.27;;;;;;;17.50;40.14;102471.28;4170714;28;20044;-43
2021/05/28 04:57:48;;;;;;;1.73;1.20;;;;;;;17.49;40.38;102469.56;4178683;28;20037;-43
2021/05/28 04:59:48;;;;;;;1.73;1.30;;;;;;;17.40;40.24;102461.56;4171400;28;20037;-43
2021/05/28 05:01:49;;;;;;;1.70;1.60;;;;;;;17.38;40.40;102474.81;4167672;28;20040;-43
2021/05/28 05:03:49;;;;;;;1.80;1.42;;;;;;;17.48;40.28;102476.19;4175854;28;20025;-43
2021/05/28 05:05:49;;;;;;;1.20;0.95;;;;;;;17.39;40.70;102476.47;4176147;28;20398;-43
2021/05/28 05:07:50;;;;;;;1.30;1.17;;;;;;;17.49;40.32;102475.09;4178123;28;20462;-44
2021/05/28 05:09:50;;;;;;;1.02;1.02;;;;;;;17.38;40.42;102474.81;4172605;28;20056;-42
2021/05/28 05:11:51;;;;;;;1.65;1.25;;;;;;;17.36;40.65;102481.63;4172271;28;20041;-43
2021/05/28 05:13:51;;;;;;;1.45;1.17;;;;;;;17.38;40.59;102485.00;4173379;28;20761;-43
2021/05/28 05:15:52;;;;;;;1.35;1.10;;;;;;;17.37;40.50;102486.09;4176648;28;20119;-43
2021/05/28 05:17:52;;;;;;;1.58;1.40;;;;;;;17.35;40.65;102483.56;4175313;28;20036;-43
2021/05/28 05:19:53;;;;;;;1.85;1.23;;;;;;;17.29;40.70;102490.84;4174105;28;20048;-42
2021/05/28 05:21:53;;;;;;;1.70;1.38;;;;;;;17.39;40.47;102486.72;4175622;28;20538;-43
2021/05/28 05:23:54;;;;;;;1.77;1.13;;;;;;;17.25;40.65;102472.16;4173672;28;20066;-45
2021/05/28 05:25:54;;;;;;;1.75;1.65;;;;;;;17.42;40.23;102484.31;4171537;28;20032;-44
2021/05/28 05:27:55;;;;;;;0.82;0.80;;;;;;;17.39;40.45;102489.47;4181068;28;20267;-45
2021/05/28 05:29:55;;;;;;;1.20;1.10;;;;;;;17.32;40.41;102492.31;4173300;28;20077;-45
2021/05/28 05:31:56;;;;;;;2.08;1.20;;;;;;;17.35;40.52;102500.16;4175085;28;20041;-49
2021/05/28 05:33:57;;;;;;;1.20;1.08;;;;;;;17.37;40.50;102483.34;4171618;28;20048;-45
2021/05/28 05:35:57;;;;;;;1.30;1.20;;;;;;;17.36;40.41;102488.00;4176599;28;20029;-47
2021/05/28 05:37:57;;;;;;;1.45;1.35;;;;;;;17.29;40.82;102496.38;4176131;28;20037;-48
2021/05/28 05:39:58;;;;;;;1.40;1.20;;;;;;;17.39;40.40;102495.84;4172767;28;20118;-45
2021/05/28 05:42:01;;;;;;;1.25;1.15;;;;;;;17.45;40.09;102496.88;4173282;28;20025;-45
2021/05/28 05:44:02;;;;;;;1.60;1.50;;;;;;;17.46;40.07;102502.19;4171989;28;20456;-44
2021/05/28 05:46:03;;;;;;;1.67;1.17;;;;;;;17.49;40.18;102500.00;4172301;28;20553;-46
2021/05/28 05:48:04;;;;;;;4.40;1.58;;;;;;;17.38;40.23;102502.47;4176157;28;20475;-45
2021/05/28 05:50:05;;;;;;;2.05;1.42;;;;;;;17.31;40.88;102500.84;4147061;28;20473;-44
2021/05/28 05:52:06;;;;;;;2.85;1.45;;;;;;;17.40;40.53;102507.78;4181791;28;20060;-46
2021/05/28 05:54:06;;;;;;;1.48;1.38;;;;;;;17.32;40.60;102508.94;4178521;28;20033;-44
2021/05/28 05:56:07;;;;;;;1.30;1.20;;;;;;;17.28;40.69;102502.16;4172414;28;20148;-44
2021/05/28 05:58:07;;;;;;;2.22;1.45;;;;;;;17.26;40.92;102510.69;4178891;28;20437;-44
2021/05/28 06:00:08;;;;;;;1.50;1.20;;;;;;;17.22;41.15;102505.81;4172740;28;20033;-45
2021/05/28 06:02:09;;;;;;;1.20;1.10;;;;;;;17.27;40.97;102509.63;4179432;28;20037;-45
2021/05/28 06:04:09;;;;;;;2.15;1.38;;;;;;;17.33;40.89;102516.13;4171165;28;20075;-45
2021/05/28 06:06:09;;;;;;;1.60;1.40;;;;;;;17.31;41.04;102517.47;4174463;28;20040;-44
2021/05/28 06:08:11;;;;;;;2.13;1.55;;;;;;;17.39;40.71;102514.38;4175982;28;20020;-44
2021/05/28 06:10:12;;;;;;;1.63;1.52;;;;;;;17.23;41.04;102505.59;4172933;28;20024;-50
2021/05/28 06:12:13;;;;;;;3.28;1.58;;;;;;;17.27;40.97;102494.91;4171957;28;20033;-45
2021/05/28 06:14:13;;;;;;;2.15;1.35;;;;;;;17.33;41.08;102520.84;4169461;28;20043;-46
2021/05/28 06:16:14;;;;;;;1.58;1.35;;;;;;;17.39;40.91;102517.16;4174395;28;20108;-49
2021/05/28 06:18:14;;;;;;;2.70;1.45;;;;;;;17.36;41.29;102523.16;4182649;28;20047;-46
2021/05/28 06:20:15;;;;;;;1.77;1.52;;;;;;;17.06;41.58;102469.34;4174348;28;20029;-43
2021/05/28 06:22:20;;;;;;;3.40;1.42;;;;;;;17.44;41.28;102520.06;4171997;28;20060;-43
2021/05/28 06:24:21;;;;;;;1.48;1.13;;;;;;;17.40;40.98;102521.63;4177606;28;20706;-42
2021/05/28 06:26:21;;;;;;;1.83;1.58;;;;;;;17.41;41.16;102524.16;4174858;28;20037;-43
2021/05/28 06:28:22;;;;;;;2.65;1.38;;;;;;;17.44;41.54;102533.91;4169659;28;20542;-45
2021/05/28 06:30:22;;;;;;;3.28;1.25;;;;;;;17.42;41.37;102530.53;4178851;28;20099;-44
2021/05/28 06:32:23;;;;;;;1.10;1.00;;;;;;;17.43;41.66;102529.47;4171431;28;20032;-43
2021/05/28 06:34:23;;;;;;;3.95;1.80;;;;;;;17.52;40.96;102527.28;4157088;28;20040;-43
2021/05/28 06:36:24;;;;;;;3.58;1.35;;;;;;;17.48;41.42;102526.03;4177165;28;20037;-43
2021/05/28 06:38:25;;;;;;;2.40;1.60;;;;;;;17.46;41.26;102529.84;4171208;28;20124;-43
2021/05/28 06:40:25;;;;;;;3.42;1.60;;;;;;;17.50;41.50;102524.72;4174579;28;20057;-45
2021/05/28 06:42:26;;;;;;;3.80;1.80;;;;;;;17.53;41.69;102528.97;4170445;28;20087;-43
2021/05/28 06:44:26;;;;;;;5.32;1.90;;;;;;;17.55;41.96;102519.38;4172440;28;20426;-43
2021/05/28 06:46:27;;;;;;;4.15;1.58;;;;;;;17.57;41.91;102521.91;4173452;28;20033;-46
2021/05/28 06:48:27;;;;;;;4.78;1.42;;;;;;;17.56;41.88;102525.75;4170349;28;20179;-48
2021/05/28 06:50:31;;;;;;;2.13;1.60;;;;;;;17.61;41.83;102525.91;4167875;28;20048;-45
2021/05/28 06:52:31;;;;;;;2.72;1.45;;;;;;;17.62;42.29;102533.97;4169100;28;20551;-44
2021/05/28 06:54:33;;;;;;;5.97;2.13;;;;;;;17.62;41.39;102533.13;4166295;28;20060;-44
2021/05/28 06:56:33;;;;;;;4.43;1.60;;;;;;;17.69;41.65;102535.81;4171186;28;20408;-46
2021/05/28 06:58:34;;;;;;;2.33;1.50;;;;;;;17.73;41.85;102537.91;4168226;28;20037;-44
2021/05/28 07:00:34;;;;;;;3.92;1.75;;;;;;;17.76;41.27;102523.59;4167055;28;20037;-44
2021/05/28 07:02:36;;;;;;;5.18;2.17;;;;;;;17.72;41.40;102533.47;4173671;28;20041;-43
2021/05/28 07:04:36;;;;;;;3.33;1.70;;;;;;;17.74;41.65;102528.53;4170120;28;20680;-44
2021/05/28 07:06:37;;;;;;;6.88;2.00;;;;;;;17.78;41.78;102538.09;4168402;28;20037;-44
2021/05/28 07:08:37;;;;;;;7.55;1.73;;;;;;;17.79;41.75;102542.53;4168715;28;20730;-43
2021/05/28 07:10:38;;;;;;;6.88;1.35;;;;;;;17.77;41.57;102541.91;4168117;28;20415;-41
2021/05/28 07:12:38;;;;;;;5.47;1.95;;;;;;;17.75;41.32;102529.38;4170499;28;20044;-42
2021/05/28 07:14:38;;;;;;;7.05;1.50;;;;;;;17.91;41.54;102545.38;4170132;28;20033;-42
2021/05/28 07:16:39;;;;;;;5.15;1.70;;;;;;;17.85;41.84;102540.78;4171310;28;20036;-42
2021/05/28 07:18:40;;;;;;;5.63;1.80;;;;;;;17.96;41.74;102545.53;4174372;28;20037;-42
2021/05/28 07:20:40;;;;;;;5.38;1.83;;;;;;;17.95;42.18;102543.00;4172664;28;20025;-41
2021/05/28 07:22:41;;;;;;;7.82;1.63;;;;;;;18.05;41.83;102550.78;4172111;28;20599;-41
2021/05/28 07:24:42;;;;;;;4.03;1.40;;;;;;;18.04;41.86;102541.59;4173680;28;20025;-42
2021/05/28 07:26:43;;;;;;;3.33;1.20;;;;;;;18.12;41.59;102545.97;4172134;28;20660;-41
2021/05/28 07:28:43;;;;;;;4.43;1.38;;;;;;;18.09;41.84;102558.41;4172596;28;20057;-41
2021/05/28 07:30:44;;;;;;;1.77;1.20;;;;;;;18.11;41.98;102545.16;4172697;28;20032;-42
2021/05/28 07:32:45;;;;;;;4.43;1.08;;;;;;;18.13;42.08;102548.53;4170894;28;20119;-41
2021/05/28 07:34:46;;;;;;;6.18;1.50;;;;;;;18.21;41.88;102547.34;4170477;28;20037;-41
2021/05/28 07:36:46;;;;;;;3.67;1.48;;;;;;;18.22;41.90;102546.28;4171442;28;20550;-41
2021/05/28 07:38:47;;;;;;;3.13;1.80;;;;;;;18.24;41.87;102555.22;4171360;28;20033;-42
2021/05/28 07:40:47;;;;;;;6.18;1.77;;;;;;;18.24;41.52;102557.16;4174460;28;20536;-41
2021/05/28 07:42:48;;;;;;;5.82;1.45;;;;;;;18.28;41.73;102556.44;4171224;28;20061;-40
2021/05/28 07:44:48;;;;;;;1.95;1.30;;;;;;;18.25;42.13;102556.06;4171443;28;20581;-41
2021/05/28 07:46:49;;;;;;;2.55;1.20;;;;;;;18.31;41.66;102549.63;4170053;28;20037;-41
2021/05/28 07:48:49;;;;;;;2.63;1.27;;;;;;;18.34;41.91;102546.38;4172547;28;20044;-41
2021/05/28 07:50:56;;;;;;;1.90;1.30;;;;;;;18.27;42.21;102542.81;4175118;28;20033;-44
2021/05/28 07:52:56;;;;;;;5.10;1.20;;;;;;;18.44;41.88;102543.06;4176401;28;20051;-44
2021/05/28 07:54:57;;;;;;;4.53;1.50;;;;;;;18.37;41.36;102537.59;4174870;28;20033;-40
2021/05/28 07:56:57;;;;;;;1.75;1.20;;;;;;;18.45;41.76;102545.59;4170682;28;20527;-40
2021/05/28 07:58:58;;;;;;;3.17;1.20;;;;;;;18.45;42.11;102545.59;4169232;28;20601;-40
2021/05/28 08:00:59;;;;;;;2.22;1.20;;;;;;;18.48;42.07;102555.38;4174589;28;20029;-41
2021/05/28 08:03:00;;;;;;;5.32;1.45;;;;;;;18.52;42.06;102546.34;4175913;28;20846;-41
2021/05/28 08:05:00;;;;;;;2.17;1.20;;;;;;;18.51;42.07;102552.97;4175959;28;20040;-40
2021/05/28 08:07:01;;;;;;;5.60;1.30;;;;;;;18.60;42.08;102555.41;4173898;28;20032;-42
2021/05/28 08:09:02;;;;;;;3.33;1.10;;;;;;;18.37;42.66;102532.06;4177774;28;20076;-40
2021/05/28 08:11:02;;;;;;;2.20;1.05;;;;;;;18.60;42.04;102553.50;4174281;28;20075;-40
2021/05/28 08:13:03;;;;;;;6.90;2.00;;;;;;;18.62;41.95;102556.88;4174810;28;20044;-40
2021/05/28 08:15:04;;;;;;;8.70;1.65;;;;;;;18.64;42.08;102559.41;4173395;28;20047;-40
2021/05/28 08:17:04;;;;;;;4.93;1.33;;;;;;;18.65;42.39;102563.88;4174983;28;20033;-40
2021/05/28 08:19:05;;;;;;;5.43;1.10;;;;;;;18.68;42.03;102555.94;4176098;28;20033;-41
2021/05/28 08:21:06;;;;;;;9.00;1.90;;;;;;;18.71;41.88;102560.16;4176303;28;20026;-40
2021/05/28 08:23:06;;;;;;;2.45;1.48;;;;;;;18.74;42.07;102556.06;4173596;28;20098;-40
2021/05/28 08:25:07;;;;;;;1.92;1.48;;;;;;;18.75;42.27;102564.13;4180401;28;20491;-40
2021/05/28 08:27:08;;;;;;;2.67;1.27;;;;;;;18.76;41.92;102556.69;4176306;28;20048;-40
2021/05/28 08:29:08;;;;;;;3.67;1.40;;;;;;;18.80;42.22;102552.31;4172929;28;20026;-41
2021/05/28 08:31:10;;;;;;;4.28;1.20;;;;;;;18.84;41.87;102554.41;4177978;28;20395;-41
2021/05/28 08:33:12;;;;;;;2.25;1.40;;;;;;;18.83;41.88;102554.63;4173602;28;20430;-41
2021/05/28 08:35:14;;;;;;;1.95;0.85;;;;;;;18.87;42.15;102553.91;4174606;28;20025;-42
2021/05/28 08:37:14;;;;;;;2.03;1.40;;;;;;;18.91;41.83;102553.44;4174860;28;20037;-40
2021/05/28 08:39:14;;;;;;;2.45;1.25;;;;;;;18.91;41.79;102559.00;4173400;28;20033;-40
2021/05/28 08:41:15;;;;;;;2.50;1.23;;;;;;;18.95;42.03;102557.44;4174541;28;20044;-41
2021/05/28 08:43:16;;;;;;;3.90;1.20;;;;;;;18.98;41.64;102556.97;4174693;28;20029;-41
2021/05/28 08:45:16;;;;;;;3.38;1.10;;;;;;;18.99;41.68;102547.56;4171794;28;20029;-39
2021/05/28 08:47:17;;;;;;;2.53;1.10;;;;;;;18.94;41.59;102545.50;4174973;28;20399;-41
2021/05/28 08:49:17;;;;;;;2.97;1.25;;;;;;;19.04;41.07;102558.78;4174793;28;20052;-41
2021/05/28 08:51:18;;;;;;;5.75;1.20;;;;;;;19.04;41.63;102554.06;4175071;28;20040;-40
2021/05/28 08:53:19;;;;;;;2.75;1.33;;;;;;;19.04;41.52;102548.53;4176937;28;20426;-41
2021/05/28 08:55:20;;;;;;;2.55;0.85;;;;;;;19.05;41.39;102549.41;4174383;28;20037;-40
2021/05/28 08:57:22;;;;;;;2.85;1.10;;;;;;;19.12;41.75;102554.84;4172638;28;20025;-40
2021/05/28 08:59:22;;;;;;;1.25;0.98;;;;;;;19.13;41.52;102551.84;4170999;28;20586;-40
2021/05/28 09:01:23;;;;;;;4.07;1.35;;;;;;;19.06;40.86;102551.06;4173803;28;20068;-40
2021/05/28 09:03:31;;;;;;;4.65;1.25;;;;;;;19.18;40.78;102542.78;4167961;28;20036;-40
2021/05/28 09:05:37;;;;;;;2.35;0.95;;;;;;;19.18;40.61;102546.41;4175301;28;20191;-41
2021/05/28 09:07:39;;;;;;;1.88;1.30;;;;;;;19.26;40.81;102536.03;4171817;28;20025;-40
2021/05/28 09:09:40;;;;;;;2.45;1.05;;;;;;;19.03;40.88;102499.69;4162953;28;20037;-41
2021/05/28 09:12:01;;;;;;;1.75;1.20;;;;;;;19.32;40.72;102538.69;4171426;28;20036;-41
2021/05/28 09:14:01;;;;;;;5.30;1.30;;;;;;;19.36;41.17;102534.34;4175224;28;20497;-40
2021/05/28 09:16:14;;;;;;;4.05;0.90;;;;;;;19.40;40.83;102530.03;4181549;28;20033;-40
2021/05/28 09:18:15;;;;;;;1.95;1.23;;;;;;;19.44;40.54;102538.69;4172996;28;20126;-40
2021/05/28 09:20:18;;;;;;;3.88;1.30;;;;;;;19.46;40.87;102544.00;4172683;28;20053;-40
2021/05/28 09:22:20;;;;;;;4.05;1.00;;;;;;;19.52;40.55;102541.09;4174951;28;20559;-40